Latest Weather Observations for Gold Coast Seaway

IDQ60901

Issued at 8:11 am EST Wednesday 2 September 2015 (issued every 10 minutes, with the page automatically refreshed every 10 minutes)

About weather observations | Map of Brisbane area stations | Latest observations for Brisbane area | Other Formats
Station Details ID: 040764 Name: GOLD COAST SEAWAY Lat: -27.94 Lon: 153.43 Height: 2.98 m
Data from the previous 72 hours. | See also: Recent months at Gold Coast Seaway
Date/Time
EST
Tmp

°C
App
Tmp
°C
Dew
Point
°C
Rel
Hum
%
Delta-T

°C
Wind Press
QNH
hPa
Press
MSL
hPa
Rain
since
9 am
mm
Dir
 
Spd
km/h
Gust
km/h
Spd
kts
Gust
kts
02/08:00am 14.4 11.3 5.5 55 4.2 NW 11 15 6 8 1019.2 1019.2 0.0
02/07:30am 12.9 9.5 5.8 62 3.3 WNW 13 15 7 8 1018.9 1018.9 0.0
02/07:00am 12.0 8.3 4.5 60 3.4 WNW 13 13 7 7 1018.5 1018.5 0.0
02/06:30am 10.3 7.1 5.1 70 2.4 W 11 11 6 6 1018.0 1018.0 0.0
02/06:00am 8.2 5.4 3.3 71 2.1 WSW 7 9 4 5 1017.8 1017.8 0.0
02/05:30am 10.0 7.4 3.3 63 2.9 WSW 6 9 3 5 1017.5 1017.5 0.0
02/05:00am 10.6 6.6 2.9 59 3.3 WNW 13 15 7 8 1017.0 1017.0 0.0
02/04:30am 10.4 6.7 4.5 67 2.6 SW 13 15 7 8 1016.6 1016.6 0.0
02/04:00am 10.5 6.8 2.6 58 3.4 WSW 11 13 6 7 1016.7 1016.7 0.0
02/03:30am 12.2 8.7 3.4 55 3.9 W 11 13 6 7 1016.4 1016.4 0.0
02/03:00am 13.4 8.7 2.9 49 4.6 WNW 17 19 9 10 1016.5 1016.5 0.0
02/02:30am 13.2 9.2 3.0 50 4.5 WNW 13 19 7 10 1016.4 1016.4 0.0
02/02:00am 12.7 8.9 2.0 48 4.6 W 11 15 6 8 1016.6 1016.6 0.0
02/01:30am 12.3 8.5 4.0 57 3.7 WNW 13 15 7 8 1016.6 1016.6 0.0
02/01:00am 12.2 8.5 4.2 58 3.6 W 13 15 7 8 1016.5 1016.5 0.0
02/12:30am 12.8 9.6 5.0 59 3.6 WNW 11 13 6 7 1016.6 1016.6 0.0
02/12:00am 12.8 9.4 5.9 63 3.2 WNW 13 15 7 8 1016.2 1016.2 0.0
 
Date/Time
EST
Tmp

°C
App
Tmp
°C
Dew
Point
°C
Rel
Hum
%
Delta-T

°C
Wind Press
QNH
hPa
Press
MSL
hPa
Rain
since
9 am
mm
Dir
 
Spd
km/h
Gust
km/h
Spd
kts
Gust
kts
01/11:30pm 12.4 9.7 5.6 63 3.2 W 9 13 5 7 1016.3 1016.3 0.0
01/11:00pm 12.6 9.4 5.1 60 3.5 SW 11 11 6 6 1016.1 1016.1 0.0
01/10:30pm 14.0 10.9 3.8 50 4.6 SSW 9 13 5 7 1016.0 1016.0 0.0
01/10:00pm 13.0 11.2 8.1 72 2.4 WNW 7 9 4 5 1015.9 1015.9 0.0
01/09:30pm 12.1 9.6 8.4 78 1.8 SSW 11 13 6 7 1015.7 1015.7 0.0
01/09:00pm 12.5 11.8 8.6 77 1.9 SSW 2 7 1 4 1015.5 1015.5 0.0
01/08:30pm 14.6 13.1 9.2 70 2.8 SSW 7 9 4 5 1015.4 1015.4 0.0
01/08:00pm 15.8 13.7 9.7 67 3.2 WSW 11 13 6 7 1015.1 1015.1 0.0
01/07:30pm 15.3 12.6 5.5 52 4.7 NNW 9 15 5 8 1014.8 1014.8 0.0
01/07:00pm 18.3 15.4 4.8 41 6.5 NW 9 13 5 7 1014.2 1014.2 0.0
01/06:30pm 18.4 14.6 5.9 44 6.1 NNW 15 22 8 12 1013.8 1013.8 0.0
01/06:00pm 19.0 16.7 11.8 63 4.0 NNW 15 22 8 12 1013.3 1013.3 0.0
01/05:30pm 19.7 15.6 12.7 64 3.9 N 26 30 14 16 1013.1 1013.1 0.0
01/05:00pm 20.6 16.0 11.0 54 5.3 NNE 26 30 14 16 1012.9 1012.9 0.0
01/04:30pm 21.8 17.8 11.8 53 5.6 NNE 24 28 13 15 1012.6 1012.6 0.0
01/04:00pm 23.5 18.5 4.5 29 9.4 N 20 26 11 14 1012.4 1012.4 0.0
01/03:30pm 23.8 19.9 5.2 30 9.3 N 15 19 8 10 1012.5 1012.5 0.0
01/03:00pm 24.3 19.9 4.6 28 9.8 NW 17 24 9 13 1012.6 1012.6 0.0
01/02:30pm 23.6 19.1 4.0 28 9.6 NW 17 28 9 15 1013.1 1013.1 0.0
01/02:00pm 24.0 19.1 3.9 27 9.9 NW 19 26 10 14 1013.2 1013.2 0.0
01/01:30pm 23.7 19.2 2.0 24 10.3 WNW 15 22 8 12 1013.6 1013.6 0.0
01/01:00pm 23.1 19.7 2.0 25 9.9 WNW 9 17 5 9 1013.8 1013.8 0.0
01/12:30pm 22.6 19.2 4.2 30 9.0 NNW 11 19 6 10 1014.1 1014.1 0.0
01/12:00pm 22.0 17.1 2.2 27 9.3 NW 17 26 9 14 1014.6 1014.6 0.0
01/11:30am 21.8 18.0 5.7 35 8.1 NW 15 20 8 11 1015.3 1015.3 0.0
01/11:00am 21.0 16.3 3.2 31 8.4 W 17 20 9 11 1016.0 1016.0 0.0
01/10:30am 20.8 17.2 4.8 35 7.8 WNW 13 17 7 9 1016.2 1016.2 0.0
01/10:00am 20.4 16.8 4.8 36 7.6 WNW 13 17 7 9 1016.4 1016.4 0.0
01/09:30am 19.5 15.9 4.8 38 7.1 W 13 19 7 10 1016.5 1016.5 0.0
01/09:00am 18.9 15.5 5.7 42 6.5 NW 13 17 7 9 1016.4 1016.4 0.0
01/08:30am 17.5 13.5 6.7 49 5.4 WNW 17 19 9 10 1016.6 1016.6 0.0
01/08:00am 15.9 13.1 6.9 55 4.4 W 11 13 6 7 1016.2 1016.2 0.0
01/07:30am 14.8 11.5 6.6 58 4.0 WNW 13 15 7 8 1016.0 1016.0 0.0
01/07:00am 13.7 10.9 7.0 64 3.2 WNW 11 15 6 8 1016.0 1016.0 0.0
01/06:30am 11.3 8.8 6.4 72 2.3 WSW 9 11 5 6 1015.7 1015.7 0.0
01/06:00am 11.8 9.2 6.1 68 2.7 WSW 9 11 5 6 1015.4 1015.4 0.0
01/05:30am 12.8 9.6 6.8 67 2.9 W 13 15 7 8 1015.0 1015.0 0.0
01/05:00am 13.4 9.3 6.3 62 3.4 WNW 17 20 9 11 1014.7 1014.7 0.0
01/04:30am 13.5 9.4 6.4 62 3.4 WNW 17 19 9 10 1014.5 1014.5 0.0
01/04:00am 13.6 10.5 7.2 65 3.1 W 13 17 7 9 1014.4 1014.4 0.0
01/03:30am 11.9 9.6 7.4 74 2.2 W 9 13 5 7 1014.5 1014.5 0.0
01/03:00am 12.4 9.8 7.9 74 2.2 W 11 13 6 7 1014.6 1014.6 0.0
01/02:30am 12.5 10.0 8.4 76 2.0 W 11 13 6 7 1014.7 1014.7 0.0
01/02:00am 13.1 10.5 9.5 79 1.8 W 13 15 7 8 1014.9 1014.9 0.0
01/01:30am 13.0 10.8 10.9 87 1.1 W 13 13 7 7 1015.0 1015.0 0.0
01/01:00am 13.1 11.2 10.6 85 1.3 WSW 11 11 6 6 1015.1 1015.1 0.0
01/12:30am 13.4 12.1 11.1 86 1.2 WSW 9 11 5 6 1015.3 1015.3 0.0
01/12:00am 14.0 12.1 11.7 86 1.2 WSW 13 15 7 8 1015.7 1015.7 0.0
 
Date/Time
EST
Tmp

°C
App
Tmp
°C
Dew
Point
°C
Rel
Hum
%
Delta-T

°C
Wind Press
QNH
hPa
Press
MSL
hPa
Rain
since
9 am
mm
Dir
 
Spd
km/h
Gust
km/h
Spd
kts
Gust
kts
31/11:30pm 13.5 11.6 11.7 89 1.0 SW 13 15 7 8 1015.8 1015.8 0.0
31/11:00pm 13.5 11.9 11.7 89 1.0 SW 11 15 6 8 1015.8 1015.8 0.0
31/10:30pm 13.7 12.1 11.7 88 1.1 SW 11 13 6 7 1015.7 1015.7 0.0
31/10:00pm 14.2 12.3 11.7 85 1.3 SW 13 17 7 9 1015.7 1015.7 0.0
31/09:30pm 14.5 13.0 11.8 84 1.5 SW 11 15 6 8 1015.6 1015.6 0.0
31/09:00pm 14.9 13.0 11.7 81 1.7 SW 13 15 7 8 1015.4 1015.4 0.0
31/08:30pm 15.3 13.7 11.7 79 1.9 SW 11 15 6 8 1015.3 1015.3 0.0
31/08:00pm 15.0 14.0 11.0 77 2.1 ESE 7 9 4 5 1015.2 1015.2 0.0
31/07:30pm 16.1 14.7 10.8 71 2.8 ESE 9 13 5 7 1015.0 1015.0 0.0
31/07:00pm 17.0 15.7 11.1 68 3.2 E 9 11 5 6 1014.6 1014.6 0.0
31/06:30pm 17.2 15.4 11.0 67 3.3 ESE 11 15 6 8 1014.3 1014.3 0.0
31/06:00pm 17.6 15.6 11.4 67 3.4 ESE 13 15 7 8 1014.1 1014.1 0.0
31/05:30pm 17.9 15.5 11.5 66 3.5 ESE 15 19 8 10 1013.9 1013.9 0.0
31/05:00pm 18.3 16.0 10.4 60 4.2 ESE 13 15 7 8 1013.7 1013.7 0.0
31/04:30pm 19.4 16.5 10.9 58 4.6 E 17 19 9 10 1013.3 1013.3 0.0
31/04:00pm 19.8 17.1 11.6 59 4.5 ESE 17 20 9 11 1013.2 1013.2 0.0
31/03:30pm 20.4 17.6 11.3 56 5.0 E 17 19 9 10 1013.2 1013.2 0.0
31/03:00pm 19.3 16.2 10.3 56 4.8 ESE 17 19 9 10 1013.2 1013.2 0.0
31/02:30pm 20.8 18.1 10.3 51 5.7 E 15 17 8 9 1013.3 1013.3 0.0
31/02:00pm 21.2 18.8 10.1 49 6.0 E 13 17 7 9 1013.4 1013.4 0.0
31/01:30pm 21.2 18.8 10.1 49 6.0 E 13 17 7 9 1013.5 1013.5 0.0
31/01:00pm 21.4 19.1 10.3 49 6.0 ENE 13 15 7 8 1013.8 1013.8 0.0
31/12:30pm 21.3 18.4 9.5 47 6.3 E 15 17 8 9 1014.0 1014.0 0.0
31/12:00pm 21.5 19.2 9.1 45 6.6 E 11 13 6 7 1014.4 1014.4 0.0
31/11:30am 21.3 19.5 9.5 47 6.3 E 9 13 5 7 1014.8 1014.8 0.0
31/11:00am 21.4 18.9 9.6 47 6.3 ESE 13 15 7 8 1015.4 1015.4 0.0
31/10:30am 21.0 17.5 8.6 45 6.5 SE 17 20 9 11 1015.8 1015.8 0.0
31/10:00am 20.6 17.4 8.6 46 6.3 SE 15 17 8 9 1016.1 1016.1 0.0
31/09:30am 20.2 16.9 9.5 50 5.7 SSE 17 24 9 13 1016.2 1016.2 0.0
31/09:00am 19.1 18.3 11.2 60 4.3 SE 6 9 3 5 1016.3 1016.3 0.0
31/08:30am 18.2 17.3 11.5 65 3.7 SE 7 11 4 6 1016.2 1016.2 0.0
31/08:00am 16.4 15.7 12.0 75 2.4 WNW 7 11 4 6 1016.1 1016.1 0.0
31/07:30am 15.2 14.5 12.1 82 1.7 W 7 9 4 5 1015.9 1015.9 0.0
31/07:00am 14.2 13.4 12.8 91 0.8 SW 9 11 5 6 1015.8 1015.8 0.0
31/06:30am 12.9 12.2 12.1 95 0.4 SW 7 11 4 6 1015.7 1015.7 0.0
31/06:00am 13.0 11.6 12.1 94 0.5 W 11 13 6 7 1015.4 1015.4 0.0
31/05:30am 12.8 12.5 11.4 91 0.7 WSW 4 11 2 6 1015.2 1015.2 0.0
31/05:00am 13.6 12.5 12.0 90 0.9 WSW 9 13 5 7 1015.1 1015.1 0.0
31/04:30am 14.0 13.0 12.2 89 1.0 W 9 11 5 6 1015.0 1015.0 0.0
31/04:00am 13.7 13.6 12.1 90 0.9 WSW 4 11 2 6 1014.9 1014.9 0.0
31/03:30am 13.7 12.1 11.7 88 1.1 WSW 11 13 6 7 1014.8 1014.8 0.0
31/03:00am 13.7 12.5 11.7 88 1.1 W 9 11 5 6 1014.9 1014.9 0.0
31/02:30am 14.5 13.0 12.0 85 1.4 WNW 11 15 6 8 1015.1 1015.1 0.0
31/02:00am 14.4 13.2 11.7 84 1.4 WSW 9 13 5 7 1015.3 1015.3 0.0
31/01:30am 14.3 12.7 11.6 84 1.4 W 11 13 6 7 1015.3 1015.3 0.0
31/01:00am 14.8 13.7 11.9 83 1.6 W 9 11 5 6 1015.7 1015.7 0.0
31/12:30am 15.1 13.2 11.9 81 1.7 WNW 13 15 7 8 1015.8 1015.8 0.0
31/12:00am 15.4 13.9 11.8 79 1.9 WSW 11 15 6 8 1015.9 1015.9 0.0
 
Date/Time
EST
Tmp

°C
App
Tmp
°C
Dew
Point
°C
Rel
Hum
%
Delta-T

°C
Wind Press
QNH
hPa
Press
MSL
hPa
Rain
since
9 am
mm
Dir
 
Spd
km/h
Gust
km/h
Spd
kts
Gust
kts
30/11:30pm 15.6 14.5 12.0 79 2.0 SW 9 13 5 7 1016.2 1016.2 0.0
30/11:00pm 16.5 15.4 11.9 74 2.5 SW 9 11 5 6 1016.2 1016.2 0.0
30/10:30pm 16.9 15.4 11.8 72 2.8 SW 11 17 6 9 1016.3 1016.3 0.0
30/10:00pm 17.0 14.9 12.3 74 2.6 SSW 15 22 8 12 1016.3 1016.3 0.0
30/09:30pm 16.8 14.7 12.5 76 2.4 S 15 22 8 12 1016.4 1016.4 0.0
30/09:00pm 16.4 13.8 12.0 75 2.4 S 17 22 9 12 1016.2 1016.2 0.0
30/08:30pm 16.4 13.7 11.6 73 2.6 S 17 22 9 12 1016.2 1016.2 0.0
30/08:00pm 16.5 13.1 11.2 71 2.8 S 20 32 11 17 1015.9 1015.9 0.0
30/07:30pm 17.0 12.0 12.1 73 2.7 SSE 30 35 16 19 1015.7 1015.7 0.0
30/07:00pm 17.3 12.6 12.0 71 2.9 SSE 28 33 15 18 1015.3 1015.3 0.0
30/06:30pm 17.6 12.6 13.3 76 2.4 SSE 32 35 17 19 1014.8 1014.8 0.0
30/06:00pm 17.9 14.5 13.6 76 2.4 SSE 24 30 13 16 1014.5 1014.5 0.0
30/05:30pm 18.1 14.1 14.2 78 2.2 SE 28 32 15 17 1014.2 1014.2 0.0
30/05:00pm 18.5 13.7 14.6 78 2.3 SE 33 37 18 20 1013.8 1013.8 0.0
30/04:30pm 19.2 14.4 14.0 72 3.0 SE 32 37 17 20 1013.6 1013.6 0.0
30/04:00pm 19.7 15.0 14.3 71 3.1 SE 32 37 17 20 1013.5 1013.5 0.0
30/03:30pm 20.3 15.7 14.7 70 3.3 SE 32 37 17 20 1013.5 1013.5 0.0
30/03:00pm 20.6 15.5 13.6 64 4.0 SE 33 37 18 20 1013.5 1013.5 0.0
30/02:30pm 20.4 15.8 13.6 65 3.9 SE 30 35 16 19 1013.7 1013.7 0.0
30/02:00pm 20.3 16.3 11.8 58 4.7 ESE 24 26 13 14 1013.9 1013.9 0.0
30/01:30pm 21.5 17.3 12.4 56 5.1 ESE 26 28 14 15 1014.0 1014.0 0.0
30/01:00pm 21.4 18.5 11.1 52 5.7 ESE 17 20 9 11 1014.3 1014.3 0.0
30/12:30pm 21.3 18.9 11.3 53 5.5 E 15 17 8 9 1014.6 1014.6 0.0
30/12:00pm 21.0 18.3 10.2 50 5.8 E 15 17 8 9 1015.0 1015.0 0.0
30/11:30am 20.6 17.8 11.5 56 5.0 ESE 17 19 9 10 1015.6 1015.6 0.0
30/11:00am 20.6 19.0 13.8 65 3.9 ESE 15 17 8 9 1016.3 1016.3 0.0
30/10:30am 20.2 17.8 8.8 48 6.0 WNW 11 17 6 9 1016.5 1016.5 0.0
30/10:00am 19.6 17.5 9.8 53 5.2 WNW 11 15 6 8 1017.0 1017.0 0.0
30/09:30am 19.7 17.2 9.6 52 5.4 W 13 17 7 9 1017.0 1017.0 0.0
30/09:00am 19.0 17.2 10.8 59 4.4 SW 11 15 6 8 1017.0 1017.0 5.6
30/08:30am 17.6 15.9 13.5 77 2.3 W 15 19 8 10 1016.9 1016.9 5.6

Latest Capital City Observations: Canberra | Sydney | Melbourne | Brisbane | Adelaide | Perth | Hobart | Darwin

Other Formats:

Comma delimited format used in spreadsheet applications
http://www.bom.gov.au/fwo/IDQ60901/IDQ60901.94580.axf

JavaScript Object Notation format (JSON) in row-major order
http://www.bom.gov.au/fwo/IDQ60901/IDQ60901.94580.json